createdAt,value
2024-02-29T00:02:56.650Z,14.43
2024-02-29T00:06:06.108Z,13.68
2024-02-29T00:09:10.082Z,13.95
2024-02-29T00:12:13.342Z,13.55
2024-02-29T00:15:18.733Z,14.53
2024-02-29T00:18:21.998Z,14.10
2024-02-29T00:21:25.283Z,14.00
2024-02-29T00:24:28.513Z,13.60
2024-02-29T00:27:32.913Z,13.68
2024-02-29T00:30:37.650Z,13.67
2024-02-29T00:33:41.987Z,13.37
2024-02-29T00:36:45.602Z,13.63
2024-02-29T00:39:49.314Z,13.25
2024-02-29T00:42:52.624Z,15.18
2024-02-29T00:45:57.321Z,13.30
2024-02-29T00:49:00.567Z,14.63
2024-02-29T00:52:04.313Z,13.88
2024-02-29T00:55:09.101Z,12.65
2024-02-29T00:58:12.492Z,12.38
2024-02-29T01:01:17.297Z,14.23
2024-02-29T01:04:20.736Z,12.93
2024-02-29T01:07:24.182Z,13.88
2024-02-29T01:10:27.765Z,13.70
2024-02-29T01:13:31.145Z,13.32
2024-02-29T01:16:35.754Z,13.20
2024-02-29T01:19:39.033Z,13.30
2024-02-29T01:22:42.275Z,12.98
2024-02-29T01:25:45.435Z,12.48
2024-02-29T01:28:48.652Z,13.38
2024-02-29T01:31:53.332Z,12.97
2024-02-29T01:34:56.879Z,13.07
2024-02-29T01:38:00.065Z,13.95
2024-02-29T01:41:03.277Z,13.45
2024-02-29T01:44:08.903Z,13.00
2024-02-29T01:47:14.079Z,13.33
2024-02-29T01:50:18.021Z,13.10
2024-02-29T01:53:21.363Z,13.85
2024-02-29T01:56:24.822Z,13.50
2024-02-29T01:59:29.055Z,13.75
2024-02-29T02:02:33.888Z,13.40
2024-02-29T02:05:37.249Z,12.73
2024-02-29T02:08:40.669Z,12.77
2024-02-29T02:11:43.840Z,12.35
2024-02-29T02:14:47.083Z,12.57
2024-02-29T02:17:51.932Z,12.93
2024-02-29T02:20:57.737Z,12.47
2024-02-29T02:24:06.901Z,12.10
2024-02-29T02:27:10.104Z,12.88
2024-02-29T02:30:13.860Z,13.23
2024-02-29T02:33:17.548Z,12.90
2024-02-29T02:36:22.373Z,13.27
2024-02-29T02:39:28.534Z,14.50
2024-02-29T02:42:31.734Z,14.65
2024-02-29T02:45:35.010Z,15.57
2024-02-29T02:48:38.484Z,13.13
2024-02-29T02:51:43.176Z,13.23
2024-02-29T02:54:46.400Z,13.10
2024-02-29T02:57:49.635Z,13.70
2024-02-29T03:00:53.487Z,12.35
2024-02-29T03:03:56.800Z,11.93
2024-02-29T03:07:01.562Z,12.13
2024-02-29T03:10:05.272Z,11.25
2024-02-29T03:13:09.008Z,11.40
2024-02-29T03:16:12.419Z,11.90
2024-02-29T03:19:15.716Z,12.20
2024-02-29T03:22:20.474Z,12.30
2024-02-29T03:25:23.723Z,11.90
2024-02-29T03:28:26.948Z,13.00
2024-02-29T03:31:30.235Z,12.20
2024-02-29T03:34:33.596Z,14.90
2024-02-29T03:37:38.264Z,14.13
2024-02-29T03:40:45.555Z,14.52
2024-02-29T03:43:48.729Z,14.20
2024-02-29T03:46:51.915Z,14.85
2024-02-29T03:49:55.183Z,14.17
2024-02-29T03:53:04.575Z,14.60
2024-02-29T03:56:08.929Z,14.75
2024-02-29T03:59:12.082Z,14.13
2024-02-29T04:02:15.522Z,13.65
2024-02-29T04:05:18.689Z,12.73
2024-02-29T04:08:23.263Z,12.90
2024-02-29T04:11:26.456Z,13.05
2024-02-29T04:14:29.645Z,12.77
2024-02-29T04:17:34.687Z,12.82
2024-02-29T04:20:37.861Z,14.40
2024-02-29T04:23:42.376Z,12.93
2024-02-29T04:26:45.503Z,12.52
2024-02-29T04:29:48.749Z,12.32
2024-02-29T04:32:52.178Z,12.68
2024-02-29T04:35:55.459Z,12.60
2024-02-29T04:39:00.184Z,12.37
2024-02-29T04:42:04.835Z,12.30
2024-02-29T04:45:09.126Z,12.40
2024-02-29T04:48:12.270Z,13.75
2024-02-29T04:51:16.452Z,12.80
2024-02-29T04:54:20.960Z,12.80
2024-02-29T04:57:24.080Z,13.48
2024-02-29T05:00:27.161Z,12.85
2024-02-29T05:03:30.557Z,13.10
2024-02-29T05:06:33.825Z,13.33
2024-02-29T05:09:39.747Z,13.57
2024-02-29T05:12:43.024Z,12.75
2024-02-29T05:15:46.254Z,13.30
2024-02-29T05:18:49.562Z,13.18
2024-02-29T05:21:53.099Z,13.57
2024-02-29T05:24:59.460Z,13.43
2024-02-29T05:28:03.038Z,14.07
2024-02-29T05:31:06.617Z,13.38
2024-02-29T05:34:10.341Z,13.63
2024-02-29T05:37:13.691Z,13.77
2024-02-29T05:40:18.601Z,13.73
2024-02-29T05:43:21.811Z,13.93
2024-02-29T05:46:25.095Z,14.13
2024-02-29T05:49:28.307Z,13.57
2024-02-29T05:52:31.601Z,13.60
2024-02-29T05:55:37.373Z,13.17
2024-02-29T05:58:40.653Z,13.80
2024-02-29T06:01:44.012Z,13.45
2024-02-29T06:04:47.212Z,13.48
2024-02-29T06:07:50.499Z,13.47
2024-02-29T06:10:55.152Z,13.17
2024-02-29T06:14:01.273Z,13.65
2024-02-29T06:17:04.571Z,13.43
2024-02-29T06:20:11.780Z,13.50
2024-02-29T06:23:27.770Z,13.27
2024-02-29T06:26:32.367Z,13.30
2024-02-29T06:29:37.263Z,13.43
2024-02-29T06:32:47.487Z,13.48
2024-02-29T06:35:51.944Z,13.35
2024-02-29T06:38:56.092Z,13.67
2024-02-29T06:42:17.252Z,14.43
2024-02-29T06:45:21.286Z,13.10
2024-02-29T06:48:28.731Z,14.30
2024-02-29T06:55:08.664Z,14.30
2024-02-29T06:58:13.690Z,14.43
2024-02-29T07:01:21.213Z,14.05
2024-02-29T07:04:24.624Z,14.93
2024-02-29T07:07:29.262Z,13.63
2024-02-29T07:10:33.922Z,14.03
2024-02-29T07:13:38.473Z,14.43
2024-02-29T07:16:45.000Z,13.82
2024-02-29T07:19:48.355Z,14.90
2024-02-29T07:22:55.245Z,14.95
2024-02-29T07:26:08.407Z,14.00
2024-02-29T07:29:16.576Z,13.30
2024-02-29T07:32:19.709Z,13.60
2024-02-29T07:35:23.083Z,13.60
2024-02-29T07:38:33.385Z,14.05
2024-02-29T07:41:36.638Z,15.33
2024-02-29T07:44:41.181Z,13.77
2024-02-29T07:47:44.382Z,14.10
2024-02-29T07:50:47.881Z,13.82
2024-02-29T07:53:54.178Z,14.35
2024-02-29T07:56:57.414Z,15.30
2024-02-29T08:00:02.654Z,14.30
2024-02-29T08:03:08.048Z,14.82
2024-02-29T08:06:11.296Z,14.90
2024-02-29T08:09:21.177Z,13.90
2024-02-29T08:12:24.778Z,14.17
2024-02-29T08:15:30.029Z,15.17
2024-02-29T08:18:34.572Z,15.07
2024-02-29T08:21:40.251Z,15.18
2024-02-29T08:24:43.717Z,15.68
2024-02-29T08:27:47.192Z,15.43
2024-02-29T08:30:55.213Z,14.13
2024-02-29T08:34:01.794Z,13.23
2024-02-29T08:37:06.579Z,13.40
2024-02-29T08:41:05.195Z,13.30
2024-02-29T08:44:08.781Z,12.30
2024-02-29T08:47:15.931Z,12.67
2024-02-29T08:50:19.465Z,12.63
2024-02-29T08:53:23.648Z,12.40
2024-02-29T08:56:27.128Z,11.93
2024-02-29T08:59:39.260Z,12.07
2024-02-29T09:02:44.783Z,11.43
2024-02-29T09:05:48.312Z,10.90
2024-02-29T09:08:54.908Z,11.57
2024-02-29T09:11:58.373Z,12.57
2024-02-29T09:15:13.260Z,11.57
2024-02-29T09:18:18.093Z,12.80
2024-02-29T09:21:50.165Z,13.20
2024-02-29T09:24:55.968Z,13.27
2024-02-29T09:27:59.344Z,13.52
2024-02-29T09:31:02.956Z,12.90
2024-02-29T09:34:08.842Z,12.30
2024-02-29T09:37:12.449Z,12.70
2024-02-29T09:40:17.018Z,13.40
2024-02-29T09:43:23.203Z,12.38
2024-02-29T09:46:26.692Z,12.93
2024-02-29T09:50:05.507Z,12.10
2024-02-29T09:53:14.450Z,12.25
2024-02-29T09:56:20.375Z,12.23
2024-02-29T09:59:28.853Z,11.70
2024-02-29T10:02:32.568Z,12.53
2024-02-29T10:05:36.087Z,11.73
2024-02-29T10:08:40.769Z,12.43
2024-02-29T10:12:19.132Z,13.85
2024-02-29T10:18:56.521Z,12.40
2024-02-29T10:22:02.253Z,12.83
2024-02-29T10:25:14.252Z,11.90
2024-02-29T10:28:17.696Z,13.30
2024-02-29T10:31:21.184Z,13.20
2024-02-29T10:34:24.852Z,13.03
2024-02-29T10:37:28.354Z,13.33
2024-02-29T10:40:38.322Z,13.32
2024-02-29T10:43:48.844Z,12.73
2024-02-29T10:46:59.052Z,12.95
2024-02-29T10:50:06.975Z,12.77
2024-02-29T10:53:30.705Z,13.20
2024-02-29T10:56:54.594Z,12.25
2024-02-29T11:00:04.837Z,11.68
2024-02-29T11:03:11.222Z,11.13
2024-02-29T11:06:15.410Z,11.83
2024-02-29T11:09:23.912Z,13.00
2024-02-29T11:12:35.619Z,12.85
2024-02-29T11:15:50.241Z,12.25
2024-02-29T11:19:09.294Z,12.43
2024-02-29T11:22:24.313Z,12.53
2024-02-29T11:29:46.807Z,13.88
2024-02-29T11:33:06.574Z,13.60
2024-02-29T11:41:18.560Z,13.77
2024-02-29T11:49:56.896Z,13.18
2024-02-29T11:53:03.896Z,13.43
2024-02-29T11:56:14.949Z,12.48
2024-02-29T11:59:26.149Z,12.30
2024-02-29T12:02:32.725Z,12.50
2024-02-29T12:05:45.310Z,12.48
2024-02-29T12:09:56.455Z,11.50
2024-02-29T12:17:42.958Z,10.83
2024-02-29T12:20:56.631Z,10.80
2024-02-29T12:24:37.430Z,10.55
2024-02-29T12:27:49.433Z,10.65
2024-02-29T12:30:57.375Z,10.35
2024-02-29T12:34:02.678Z,9.80
2024-02-29T12:37:11.776Z,11.00
2024-02-29T12:40:26.400Z,11.05
2024-02-29T12:43:31.426Z,10.95
2024-02-29T12:46:34.925Z,10.65
2024-02-29T12:49:39.534Z,11.50
2024-02-29T12:52:44.640Z,11.30
2024-02-29T12:55:52.504Z,10.18
2024-02-29T12:58:59.273Z,10.00
2024-02-29T13:02:05.869Z,10.50
2024-02-29T13:05:10.523Z,9.87
2024-02-29T13:08:15.630Z,9.53
2024-02-29T13:11:21.528Z,10.05
2024-02-29T13:14:25.140Z,9.38
2024-02-29T13:17:32.299Z,9.35
2024-02-29T13:20:35.879Z,8.83
2024-02-29T13:23:41.607Z,8.90
2024-02-29T13:26:45.204Z,8.52
2024-02-29T13:29:48.477Z,8.88
2024-02-29T13:32:52.146Z,9.30
2024-02-29T13:35:58.475Z,9.03
2024-02-29T13:39:15.582Z,7.93
2024-02-29T13:42:19.255Z,8.20
2024-02-29T13:45:22.739Z,8.15
2024-02-29T13:48:26.786Z,8.07
2024-02-29T13:51:30.430Z,7.90
2024-02-29T13:55:01.907Z,8.10
2024-02-29T13:58:06.772Z,8.02
2024-02-29T14:01:26.235Z,8.00
2024-02-29T14:04:32.899Z,8.52
2024-02-29T14:07:40.358Z,8.30
2024-02-29T14:10:52.030Z,7.80
2024-02-29T14:13:55.251Z,8.93
2024-02-29T14:16:58.671Z,8.40
2024-02-29T14:20:01.912Z,8.65
2024-02-29T14:23:05.501Z,9.03
2024-02-29T14:26:10.282Z,9.30
2024-02-29T14:29:17.251Z,10.48
2024-02-29T14:32:21.189Z,9.52
2024-02-29T14:35:24.527Z,9.45
2024-02-29T14:38:28.518Z,9.50
2024-02-29T14:41:36.435Z,10.80
2024-02-29T14:44:40.004Z,10.48
2024-02-29T14:47:43.644Z,11.18
2024-02-29T14:50:47.206Z,13.05
2024-02-29T14:53:51.790Z,11.93
2024-02-29T14:56:56.442Z,11.30
2024-02-29T15:00:00.529Z,11.48
2024-02-29T15:03:04.395Z,10.95
2024-02-29T15:06:09.298Z,11.45
2024-02-29T15:09:13.414Z,11.83
2024-02-29T15:12:18.343Z,10.43
2024-02-29T15:15:23.728Z,11.73
2024-02-29T15:18:27.838Z,10.98
2024-02-29T15:21:33.966Z,10.57
2024-02-29T15:24:53.248Z,10.20
2024-02-29T15:28:05.293Z,10.50
2024-02-29T15:31:11.283Z,10.95
2024-02-29T15:34:14.526Z,11.23
2024-02-29T15:37:17.838Z,11.68
2024-02-29T15:40:21.292Z,10.93
2024-02-29T15:43:26.106Z,9.93
2024-02-29T15:46:30.148Z,10.30
2024-02-29T15:49:34.985Z,10.13
2024-02-29T15:52:38.608Z,10.00
2024-02-29T15:55:43.086Z,10.33
2024-02-29T15:58:47.891Z,10.83
2024-02-29T16:01:51.117Z,10.18
2024-02-29T16:04:54.453Z,11.70
2024-02-29T16:07:58.195Z,10.75
2024-02-29T16:11:01.962Z,11.30
2024-02-29T16:14:08.005Z,10.40
2024-02-29T16:17:16.391Z,11.13
2024-02-29T16:20:19.877Z,11.10
2024-02-29T16:23:23.089Z,10.90
2024-02-29T16:26:26.800Z,11.00
2024-02-29T16:29:31.374Z,11.10
2024-02-29T16:32:34.668Z,10.50
2024-02-29T16:35:39.454Z,11.23
2024-02-29T16:38:42.928Z,10.73
2024-02-29T16:41:46.457Z,10.10
2024-02-29T16:44:51.534Z,10.23
2024-02-29T16:47:55.640Z,11.48
2024-02-29T16:51:00.227Z,11.10
2024-02-29T16:54:07.075Z,11.60
2024-02-29T16:57:13.654Z,12.17
2024-02-29T17:00:19.312Z,11.17
2024-02-29T17:03:22.912Z,11.82
2024-02-29T17:06:26.720Z,11.73
2024-02-29T17:09:30.370Z,11.80
2024-02-29T17:12:34.128Z,12.27
2024-02-29T17:15:39.160Z,12.30
2024-02-29T17:18:42.994Z,13.25
2024-02-29T17:21:46.388Z,13.80
2024-02-29T17:24:50.065Z,13.68
2024-02-29T17:27:55.280Z,14.80
2024-02-29T17:31:02.075Z,14.47
2024-02-29T17:34:05.359Z,14.65
2024-02-29T17:37:09.369Z,14.77
2024-02-29T17:40:13.611Z,15.48
2024-02-29T17:43:18.521Z,15.27
2024-02-29T17:46:23.272Z,14.83
2024-02-29T17:49:26.890Z,14.52
2024-02-29T17:52:30.148Z,15.70
2024-02-29T17:55:33.567Z,14.43
2024-02-29T17:58:37.745Z,14.33
2024-02-29T18:01:42.860Z,15.07
2024-02-29T18:04:50.437Z,16.15
2024-02-29T18:07:59.201Z,15.80
2024-02-29T18:11:06.532Z,15.85
2024-02-29T18:14:09.790Z,15.30
2024-02-29T18:17:15.083Z,15.60
2024-02-29T18:20:19.229Z,14.93
2024-02-29T18:23:23.891Z,14.35
2024-02-29T18:26:27.403Z,14.05
2024-02-29T18:29:30.924Z,13.23
2024-02-29T18:32:35.835Z,13.37
2024-02-29T18:35:39.599Z,14.07
2024-02-29T18:38:43.027Z,14.50
2024-02-29T18:41:46.444Z,12.85
2024-02-29T18:44:49.896Z,14.20
2024-02-29T18:47:54.808Z,15.53
2024-02-29T18:50:58.470Z,14.82
2024-02-29T18:54:02.115Z,14.60
2024-02-29T18:57:05.907Z,14.45
2024-02-29T19:00:11.205Z,14.30
2024-02-29T19:03:17.095Z,14.67
2024-02-29T19:06:20.805Z,13.05
2024-02-29T19:09:23.916Z,14.85
2024-02-29T19:12:28.898Z,14.23
2024-02-29T19:15:32.325Z,13.80
2024-02-29T19:18:37.568Z,14.17
2024-02-29T19:21:40.939Z,14.32
2024-02-29T19:24:44.418Z,14.50
2024-02-29T19:27:48.303Z,13.98
2024-02-29T19:30:53.124Z,14.37
2024-02-29T19:33:57.781Z,14.97
2024-02-29T19:37:06.781Z,15.07
2024-02-29T19:40:11.014Z,15.60
2024-02-29T19:43:16.788Z,14.82
2024-02-29T19:46:23.132Z,16.27
2024-02-29T19:49:28.375Z,15.63
2024-02-29T19:52:35.622Z,16.52
2024-02-29T19:55:40.784Z,15.98
2024-02-29T19:58:44.399Z,16.05
2024-02-29T20:01:47.996Z,15.07
2024-02-29T20:04:53.393Z,16.30
2024-02-29T20:07:56.794Z,15.52
2024-02-29T20:11:00.128Z,15.60
2024-02-29T20:14:05.516Z,15.18
2024-02-29T20:17:08.804Z,14.73
2024-02-29T20:20:14.411Z,15.87
2024-02-29T20:23:19.591Z,15.98
2024-02-29T20:26:26.834Z,15.90
2024-02-29T20:29:30.290Z,17.35
2024-02-29T20:32:33.512Z,16.57
2024-02-29T20:35:38.868Z,17.10
2024-02-29T20:38:42.840Z,16.52
2024-02-29T20:41:46.373Z,17.67
2024-02-29T20:44:50.198Z,16.45
2024-02-29T20:47:54.002Z,17.03
2024-02-29T20:50:59.057Z,17.17
2024-02-29T20:54:02.296Z,17.08
2024-02-29T20:57:06.571Z,16.15
2024-02-29T21:00:11.341Z,16.10
2024-02-29T21:03:15.113Z,16.23
2024-02-29T21:06:23.833Z,15.90
2024-02-29T21:09:28.009Z,15.75
2024-02-29T21:12:31.357Z,16.17
2024-02-29T21:15:36.004Z,16.17
2024-02-29T21:18:39.512Z,16.33
2024-02-29T21:21:45.441Z,15.57
2024-02-29T21:24:48.756Z,16.00
2024-02-29T21:27:58.068Z,15.27
2024-02-29T21:31:01.420Z,15.70
2024-02-29T21:34:05.343Z,15.90
2024-02-29T21:37:10.559Z,16.73
2024-02-29T21:40:14.732Z,16.38
2024-02-29T21:43:18.165Z,16.27
2024-02-29T21:46:22.578Z,17.25
2024-02-29T21:49:28.207Z,16.73
2024-02-29T21:52:33.669Z,16.90
2024-02-29T21:55:37.278Z,16.65
2024-02-29T21:58:44.280Z,16.88
2024-02-29T22:01:47.847Z,17.17
2024-02-29T22:04:51.489Z,15.23
2024-02-29T22:07:56.019Z,17.03
2024-02-29T22:11:03.274Z,17.77
2024-02-29T22:14:06.547Z,16.48
2024-02-29T22:17:10.094Z,17.10
2024-02-29T22:20:14.078Z,16.80
2024-02-29T22:23:19.317Z,17.13
2024-02-29T22:26:26.019Z,16.77
2024-02-29T22:29:29.654Z,17.38
2024-02-29T22:32:33.223Z,17.15
2024-02-29T22:35:38.476Z,17.83
2024-02-29T22:38:50.460Z,18.40
2024-02-29T22:41:57.515Z,16.98
2024-02-29T22:45:07.044Z,16.02
2024-02-29T22:48:10.354Z,18.52
2024-02-29T22:51:13.624Z,17.33
2024-02-29T22:54:19.179Z,17.67
2024-02-29T22:57:22.480Z,17.17
2024-02-29T23:00:31.940Z,16.85
2024-02-29T23:03:35.837Z,17.00
2024-02-29T23:06:39.231Z,17.00
2024-02-29T23:09:43.999Z,17.13
2024-02-29T23:12:49.209Z,16.65
2024-02-29T23:15:52.812Z,16.42
2024-02-29T23:18:56.107Z,16.15
2024-02-29T23:21:59.319Z,16.17
2024-02-29T23:25:04.478Z,16.10
2024-02-29T23:28:08.199Z,16.35
2024-02-29T23:31:11.947Z,16.70
2024-02-29T23:34:15.321Z,16.95
2024-02-29T23:37:18.746Z,16.77
2024-02-29T23:40:23.327Z,16.53
2024-02-29T23:43:26.538Z,15.50
2024-02-29T23:46:29.722Z,15.23
2024-02-29T23:49:33.098Z,15.80
2024-02-29T23:52:36.285Z,15.53
2024-02-29T23:55:40.884Z,15.90
2024-02-29T23:58:44.153Z,14.73
